createdAt,value
2019-05-22T00:00:41.035Z,10.90
2019-05-22T00:05:38.301Z,10.93
2019-05-22T00:10:34.523Z,10.17
2019-05-22T00:15:30.894Z,10.77
2019-05-22T00:20:27.361Z,10.77
2019-05-22T00:25:24.959Z,11.30
2019-05-22T00:30:20.797Z,10.83
2019-05-22T00:35:16.581Z,10.73
2019-05-22T00:40:14.847Z,11.27
2019-05-22T00:45:13.851Z,11.43
2019-05-22T00:50:10.344Z,11.63
2019-05-22T00:55:07.587Z,12.53
2019-05-22T01:00:05.389Z,11.43
2019-05-22T01:05:00.436Z,10.50
2019-05-22T01:09:59.892Z,10.10
2019-05-22T01:14:54.587Z,10.47
2019-05-22T01:19:54.754Z,9.50
2019-05-22T01:24:54.078Z,12.37
2019-05-22T01:29:50.517Z,12.17
2019-05-22T01:34:45.854Z,12.03
2019-05-22T01:39:52.529Z,12.30
2019-05-22T01:45:00.643Z,11.53
2019-05-22T01:49:54.302Z,12.87
2019-05-22T01:54:50.213Z,12.27
2019-05-22T01:59:45.369Z,13.50
2019-05-22T02:04:40.378Z,15.10
2019-05-22T02:09:40.954Z,15.23
2019-05-22T02:14:38.597Z,14.97
2019-05-22T02:19:33.821Z,14.43
2019-05-22T02:24:28.974Z,15.10
2019-05-22T02:29:24.184Z,16.03
2019-05-22T02:34:19.772Z,14.87
2019-05-22T02:39:28.673Z,13.93
2019-05-22T02:44:25.393Z,14.63
2019-05-22T02:49:21.026Z,15.47
2019-05-22T02:54:16.488Z,14.50
2019-05-22T02:59:13.605Z,14.57
2019-05-22T03:04:09.997Z,13.90
2019-05-22T03:09:13.286Z,14.73
2019-05-22T03:14:12.193Z,14.73
2019-05-22T03:19:09.205Z,14.57
2019-05-22T03:24:05.004Z,16.67
2019-05-22T03:28:59.617Z,16.20
2019-05-22T03:33:54.458Z,15.67
2019-05-22T03:38:49.550Z,16.20
2019-05-22T03:43:48.794Z,15.23
2019-05-22T03:48:43.479Z,15.40
2019-05-22T03:53:41.049Z,14.87
2019-05-22T03:58:36.599Z,14.43
2019-05-22T04:03:31.614Z,14.03
2019-05-22T04:08:27.598Z,14.93
2019-05-22T04:13:22.640Z,15.00
2019-05-22T04:18:22.753Z,15.33
2019-05-22T04:23:16.701Z,15.77
2019-05-22T04:28:11.569Z,16.43
2019-05-22T04:33:07.137Z,15.50
2019-05-22T04:38:01.892Z,16.13
2019-05-22T04:43:00.183Z,16.30
2019-05-22T04:48:01.552Z,15.83
2019-05-22T04:52:56.961Z,15.10
2019-05-22T04:57:53.184Z,15.47
2019-05-22T05:02:48.321Z,15.70
2019-05-22T05:07:44.215Z,15.50
2019-05-22T05:12:40.431Z,12.30
2019-05-22T05:17:36.744Z,13.57
2019-05-22T05:22:47.106Z,14.00
2019-05-22T05:27:42.369Z,15.87
2019-05-22T05:32:37.532Z,16.40
2019-05-22T05:37:33.115Z,15.90
2019-05-22T05:42:28.667Z,15.57
2019-05-22T05:47:24.633Z,16.03
2019-05-22T05:52:20.619Z,16.67
2019-05-22T05:57:38.023Z,16.07
2019-05-22T06:02:33.707Z,16.37
2019-05-22T06:07:29.247Z,14.50
2019-05-22T06:12:26.250Z,13.90
2019-05-22T06:17:45.207Z,15.00
2019-05-22T06:22:42.104Z,13.67
2019-05-22T06:27:39.140Z,12.60
2019-05-22T06:33:08.601Z,13.27
2019-05-22T06:38:37.729Z,13.70
2019-05-22T06:43:37.994Z,13.47
2019-05-22T06:48:32.859Z,12.10
2019-05-22T06:53:28.599Z,11.53
2019-05-22T06:58:23.383Z,12.53
2019-05-22T07:03:21.492Z,13.40
2019-05-22T07:08:17.160Z,14.67
2019-05-22T07:13:14.868Z,11.43
2019-05-22T07:18:13.171Z,12.47
2019-05-22T07:23:16.816Z,12.70
2019-05-22T07:28:15.271Z,10.87
2019-05-22T07:33:12.401Z,11.03
2019-05-22T07:38:18.129Z,10.87
2019-05-22T07:43:13.585Z,9.37
2019-05-22T07:48:10.237Z,9.67
2019-05-22T07:53:11.000Z,8.90
2019-05-22T07:58:11.055Z,9.27
2019-05-22T08:03:08.127Z,8.70
2019-05-22T08:08:04.329Z,8.83
2019-05-22T08:12:59.076Z,9.27
2019-05-22T08:17:53.785Z,9.07
2019-05-22T08:22:51.896Z,8.60
2019-05-22T08:27:54.710Z,8.60
2019-05-22T08:32:56.729Z,7.90
2019-05-22T08:37:58.010Z,8.07
2019-05-22T08:42:58.724Z,7.40
2019-05-22T08:47:59.839Z,8.17
2019-05-22T08:52:59.542Z,7.90
2019-05-22T08:58:00.025Z,7.60
2019-05-22T09:03:03.264Z,7.40
2019-05-22T09:07:58.874Z,6.90
2019-05-22T09:12:54.084Z,6.90
2019-05-22T09:17:49.151Z,6.00
2019-05-22T09:22:46.659Z,5.90
2019-05-22T09:27:47.254Z,5.73
2019-05-22T09:32:42.540Z,5.90
2019-05-22T09:37:44.953Z,5.50
2019-05-22T09:42:40.918Z,5.70
2019-05-22T09:47:36.821Z,4.73
2019-05-22T09:52:31.976Z,5.03
2019-05-22T09:57:26.730Z,5.28
2019-05-22T10:02:21.931Z,5.60
2019-05-22T10:07:16.766Z,5.45
2019-05-22T10:12:12.101Z,5.55
2019-05-22T10:17:09.010Z,4.97
2019-05-22T10:22:05.715Z,5.47
2019-05-22T10:27:00.307Z,4.80
2019-05-22T10:31:55.045Z,5.15
2019-05-22T10:36:50.922Z,5.22
2019-05-22T10:41:45.892Z,5.58
2019-05-22T10:46:40.999Z,4.92
2019-05-22T10:51:35.915Z,5.03
2019-05-22T10:56:31.135Z,4.00
2019-05-22T11:01:25.885Z,3.00
2019-05-22T11:06:21.736Z,3.77
2019-05-22T11:11:17.973Z,3.55
2019-05-22T11:16:13.979Z,3.47
2019-05-22T11:21:10.824Z,3.35
2019-05-22T11:26:07.386Z,3.47
2019-05-22T11:31:04.377Z,3.15
2019-05-22T11:35:59.162Z,3.85
2019-05-22T11:40:54.305Z,3.67
2019-05-22T11:45:49.424Z,2.50
2019-05-22T11:50:46.314Z,2.40
2019-05-22T11:55:45.583Z,3.27
2019-05-22T12:00:37.739Z,5.20
2019-05-22T12:05:32.826Z,5.40
2019-05-22T12:10:28.038Z,6.85
2019-05-22T12:15:27.892Z,6.65
2019-05-22T12:20:23.595Z,7.15
2019-05-22T12:25:19.978Z,6.58
2019-05-22T12:30:17.685Z,6.62
2019-05-22T12:35:15.767Z,6.83
2019-05-22T12:40:15.692Z,5.03
2019-05-22T12:45:12.578Z,5.53
2019-05-22T12:50:10.698Z,5.67
2019-05-22T12:55:08.014Z,5.03
2019-05-22T13:00:03.681Z,5.00
2019-05-22T13:05:00.412Z,4.15
2019-05-22T13:09:55.156Z,3.70
2019-05-22T13:14:49.998Z,4.10
2019-05-22T13:19:46.727Z,4.83
2019-05-22T13:24:43.996Z,5.70
2019-05-22T13:29:41.104Z,6.30
2019-05-22T13:34:38.021Z,6.10
2019-05-22T13:39:32.967Z,6.17
2019-05-22T13:44:29.852Z,5.80
2019-05-22T13:49:24.622Z,6.60
2019-05-22T13:54:27.861Z,6.60
2019-05-22T13:59:26.570Z,5.93
2019-05-22T14:04:26.505Z,6.93
2019-05-22T14:09:27.576Z,6.83
2019-05-22T14:14:37.335Z,6.47
2019-05-22T14:19:38.763Z,7.75
2019-05-22T14:24:39.391Z,8.27
2019-05-22T14:29:40.616Z,6.93
2019-05-22T14:34:41.094Z,6.87
2019-05-22T14:39:42.234Z,6.57
2019-05-22T14:44:37.653Z,4.97
2019-05-22T14:49:32.493Z,4.50
2019-05-22T14:54:27.633Z,5.30
2019-05-22T14:59:22.892Z,4.90
2019-05-22T15:04:18.517Z,5.57
2019-05-22T15:09:14.141Z,4.77
2019-05-22T15:14:09.094Z,4.77
2019-05-22T15:19:09.324Z,4.83
2019-05-22T15:24:08.383Z,5.00
2019-05-22T15:29:03.199Z,4.90
2019-05-22T15:33:59.259Z,4.57
2019-05-22T15:38:55.599Z,4.87
2019-05-22T15:43:53.521Z,4.63
2019-05-22T15:48:50.286Z,5.03
2019-05-22T15:53:47.721Z,4.70
2019-05-22T15:58:47.035Z,5.40
2019-05-22T16:03:42.520Z,5.10
2019-05-22T16:08:37.555Z,5.20
2019-05-22T16:13:35.059Z,4.87
2019-05-22T16:18:33.064Z,4.90
2019-05-22T16:23:30.316Z,4.47
2019-05-22T16:28:25.610Z,4.87
2019-05-22T16:33:21.758Z,5.43
2019-05-22T16:38:16.826Z,5.37
2019-05-22T16:43:11.517Z,5.07
2019-05-22T16:48:08.749Z,4.83
2019-05-22T16:53:08.189Z,4.80
2019-05-22T16:58:03.623Z,5.10
2019-05-22T17:02:59.690Z,5.17
2019-05-22T17:07:54.658Z,4.73
2019-05-22T17:12:52.093Z,5.17
2019-05-22T17:17:48.794Z,5.03
2019-05-22T17:22:44.176Z,4.73
2019-05-22T17:27:39.806Z,4.90
2019-05-22T17:32:35.392Z,4.70
2019-05-22T17:37:31.302Z,4.80
2019-05-22T17:42:28.433Z,4.43
2019-05-22T17:47:26.440Z,4.23
2019-05-22T17:52:23.954Z,4.87
2019-05-22T17:57:20.264Z,4.90
2019-05-22T18:02:17.292Z,5.23
2019-05-22T18:07:12.479Z,4.80
2019-05-22T18:12:08.998Z,5.17
2019-05-22T18:17:04.544Z,5.40
2019-05-22T18:21:59.393Z,4.70
2019-05-22T18:26:53.999Z,5.10
2019-05-22T18:31:48.744Z,5.23
2019-05-22T18:36:43.378Z,4.93
2019-05-22T18:41:37.970Z,4.40
2019-05-22T18:46:32.619Z,5.53
2019-05-22T18:51:27.353Z,5.30
2019-05-22T18:56:21.934Z,5.40
2019-05-22T19:01:16.727Z,6.40
2019-05-22T19:06:11.599Z,5.80
2019-05-22T19:11:06.744Z,5.90
2019-05-22T19:16:01.386Z,5.33
2019-05-22T19:20:56.361Z,4.70
2019-05-22T19:25:51.091Z,4.50
2019-05-22T19:30:45.669Z,4.20
2019-05-22T19:35:40.399Z,4.60
2019-05-22T19:40:36.600Z,4.57
2019-05-22T19:45:32.324Z,4.50
2019-05-22T19:50:29.297Z,4.47
2019-05-22T19:55:26.659Z,4.83
2019-05-22T20:00:23.235Z,4.97
2019-05-22T20:05:19.183Z,5.60
2019-05-22T20:10:15.556Z,5.57
2019-05-22T20:15:12.705Z,6.33
2019-05-22T20:20:11.722Z,6.17
2019-05-22T20:25:08.973Z,6.33
2019-05-22T20:30:06.211Z,5.83
2019-05-22T20:35:02.077Z,5.87
2019-05-22T20:39:56.755Z,5.97
2019-05-22T20:44:52.169Z,5.43
2019-05-22T20:49:47.961Z,6.27
2019-05-22T20:54:43.453Z,5.63
2019-05-22T20:59:38.783Z,6.13
2019-05-22T21:04:35.383Z,5.13
2019-05-22T21:09:31.733Z,5.03
2019-05-22T21:14:26.808Z,6.00
2019-05-22T21:19:23.711Z,4.53
2019-05-22T21:24:19.282Z,4.40
2019-05-22T21:29:14.585Z,4.00
2019-05-22T21:34:09.505Z,3.40
2019-05-22T21:39:04.645Z,3.40
2019-05-22T21:43:59.390Z,4.00
2019-05-22T21:48:56.918Z,3.23
2019-05-22T21:53:51.511Z,4.37
2019-05-22T21:58:46.604Z,4.47
2019-05-22T22:03:51.696Z,4.30
2019-05-22T22:08:47.257Z,3.93
2019-05-22T22:13:43.789Z,5.20
2019-05-22T22:18:40.016Z,4.07
2019-05-22T22:23:36.242Z,4.10
2019-05-22T22:28:32.398Z,4.00
2019-05-22T22:33:32.485Z,3.93
2019-05-22T22:38:28.979Z,3.50
2019-05-22T22:43:28.261Z,5.60
2019-05-22T22:48:33.471Z,5.30
2019-05-22T22:53:28.765Z,5.20
2019-05-22T22:58:23.853Z,5.10
2019-05-22T23:03:26.603Z,4.53
2019-05-22T23:08:29.629Z,3.80
2019-05-22T23:13:25.556Z,4.40
2019-05-22T23:18:45.339Z,4.50
2019-05-22T23:23:38.887Z,4.70
2019-05-22T23:28:35.138Z,4.43
2019-05-22T23:33:32.335Z,4.60
2019-05-22T23:38:28.170Z,4.63
2019-05-22T23:43:23.385Z,4.43
2019-05-22T23:48:19.989Z,4.47
2019-05-22T23:53:16.673Z,3.90
2019-05-22T23:58:13.920Z,4.30
